Flight Track Log - Related Links

Times and Time Zones

All times are in EDT time to prevent confusion due to time zone crossing. See the EJA641 flight status page for this flight to view local times or setup timezone preferences in your user account.

Time Position Orientation Groundspeed Altitude Reporting Facility
EDT Latitude Longitude Course Direction KTS MPH feet Rate Location/Type
Wed 07:16:23 PM 42.3778 -87.9272 206° Southwest 197 227 3,700  Level Chicago Center
Wed 07:17:25 PM 42.3292 -87.9589 206° Southwest 223 257 7,300 3,145 Climbing Chicago Center
Wed 07:18:27 PM 42.2706 -87.9419 168° South 210 242 10,200 2,565 Climbing Chicago Center
Wed 07:19:29 PM 42.1822 -87.9292 174° South 266 306 12,600 2,419 Climbing Chicago Center
Wed 07:20:31 PM 42.1028 -87.9178 174° South 285 328 15,200 2,244 Climbing Chicago Center
Wed 07:21:32 PM 42.0231 -87.9058 174° South 288 331 17,200 1,756 Climbing Chicago Center
Wed 07:22:34 PM 41.9333 -87.8922 174° South 319 367 18,800 1,790 Climbing Chicago Center
Wed 07:23:36 PM 41.8389 -87.8778 173° South 340 391 20,900 1,887 Climbing Chicago Center
Wed 07:24:38 PM 41.7417 -87.8628 173° South 350 403 22,700 1,008 Climbing Chicago Center
Wed 07:25:41 PM 41.6150 -87.8431 173° South 384 442 23,000 432 Climbing Chicago Center
Wed 07:26:43 PM 41.5036 -87.8264 174° South 398 458 23,600 968 Climbing Chicago Center
Wed 07:27:45 PM 41.3947 -87.8106 174° South 390 449 25,000 677 Climbing Chicago Center
Wed 07:28:47 PM 41.2861 -87.7908 172° South 390 449 25,000  Level Chicago Center
Wed 07:29:49 PM 41.1822 -87.7667 170° South 380 437 25,000  Level Chicago Center
Wed 07:30:51 PM 41.0792 -87.7431 170° South 376 433 25,000  Level Chicago Center
Wed 07:31:53 PM 40.9739 -87.7181 170° South 383 441 25,000  Level Chicago Center
Wed 07:32:55 PM 40.8486 -87.6897 170° South 382 440 25,000  Level Chicago Center
Wed 07:33:57 PM 40.7439 -87.6656 170° South 383 441 25,000  Level Chicago Center
Wed 07:34:59 PM 40.6383 -87.6408 170° South 387 445 25,000  Level Chicago Center
Wed 07:36:01 PM 40.5333 -87.6158 170° South 385 443 25,000  Level Chicago Center
Wed 07:37:03 PM 40.4272 -87.5914 170° South 389 448 25,000  Level Chicago Center
Wed 07:38:05 PM 40.2994 -87.5644 171° South 390 449 25,000  Level Chicago Center
Wed 07:39:07 PM 40.1936 -87.5400 170° South 389 448 25,000  Level Chicago Center
Wed 07:40:09 PM 40.0931 -87.5178 170° South 389 448 25,000  Level Chicago Center
Wed 07:40:40 PM 40.0367 -87.5067 171° South 389 448 25,000  Level Indianapolis Center
Wed 07:41:42 PM 39.9131 -87.4803 171° South 385 443 25,000  Level Indianapolis Center
Wed 07:42:44 PM 39.8061 -87.4556 170° South 386 444 25,000  Level Indianapolis Center
Wed 07:43:45 PM 39.7006 -87.4317 170° South 385 443 25,000  Level Indianapolis Center
Wed 07:44:47 PM 39.5939 -87.4092 171° South 386 444 25,000  Level Indianapolis Center
Wed 07:45:49 PM 39.4894 -87.3858 170° South 381 438 25,000  Level Indianapolis Center
Wed 07:46:50 PM 39.3842 -87.3633 171° South 380 437 25,000  Level Indianapolis Center
Wed 07:47:52 PM 39.2789 -87.3397 170° South 381 438 25,000  Level Indianapolis Center
Wed 07:48:54 PM 39.1553 -87.3128 170° South 381 438 25,000  Level Indianapolis Center
Wed 07:49:55 PM 39.0647 -87.2928 170° South 382 440 25,000  Level Indianapolis Center
Wed 07:50:57 PM 38.9597 -87.2706 171° South 382 440 25,000  Level Indianapolis Center
Wed 07:51:59 PM 38.8342 -87.2436 171° South 380 437 25,000  Level Indianapolis Center
Wed 07:53:00 PM 38.7294 -87.2208 170° South 381 438 25,000  Level Indianapolis Center
Wed 07:54:02 PM 38.6244 -87.1981 170° South 382 440 25,000  Level Indianapolis Center
Wed 07:55:04 PM 38.5194 -87.1758 171° South 381 438 25,000  Level Indianapolis Center
Wed 07:56:05 PM 38.4153 -87.1547 171° South 381 438 25,000  Level Indianapolis Center
Wed 07:57:07 PM 38.2956 -87.1275 170° South 385 443 25,000  Level Indianapolis Center
Wed 07:58:08 PM 38.1906 -87.1069 171° South 383 441 25,000  Level Indianapolis Center
Wed 07:59:10 PM 38.0864 -87.0847 170° South 381 438 25,000  Level Indianapolis Center
Wed 08:00:12 PM 37.9814 -87.0625 171° South 382 440 25,000  Level Indianapolis Center
Wed 08:01:13 PM 37.8778 -87.0406 171° South 378 435 25,000  Level Indianapolis Center
Wed 08:02:15 PM 37.7739 -87.0183 170° South 377 434 25,000  Level Indianapolis Center
Wed 08:03:17 PM 37.6697 -86.9969 171° South 377 434 25,000  Level Indianapolis Center
Wed 08:03:45 PM 37.6150 -86.9853 170° South 375 432 25,000  Level Memphis Center
Wed 08:04:45 PM 37.5022 -86.9639 171° South 375 432 25,000  Level Memphis Center
Wed 08:05:45 PM 37.3994 -86.9422 170° South 375 432 25,000  Level Memphis Center
Wed 08:06:45 PM 37.2947 -86.9206 171° South 375 432 25,000  Level Memphis Center
Wed 08:07:45 PM 37.1919 -86.8989 170° South 374 430 25,000  Level Memphis Center
Wed 08:08:45 PM 37.0892 -86.8775 171° South 374 430 25,000  Level Memphis Center
Wed 08:09:45 PM 36.9889 -86.8586 171° South 374 430 25,000  Level Memphis Center
Wed 08:10:45 PM 36.8861 -86.8369 170° South 374 430 25,000  Level Memphis Center
Wed 08:11:45 PM 36.7833 -86.8156 171° South 374 430 25,000  Level Memphis Center
Wed 08:12:45 PM 36.6931 -86.7964 170° South 374 430 25,000  Level Memphis Center
Wed 08:13:45 PM 36.5906 -86.7750 170° South 374 430 25,000  Level Memphis Center
Wed 08:14:45 PM 36.4897 -86.7536 170° South 374 430 25,000  Level Memphis Center
Wed 08:15:45 PM 36.3892 -86.7325 170° South 374 430 25,000  Level Memphis Center
Wed 08:16:45 PM 36.2717 -86.7094 171° South 374 430 25,000  Level Memphis Center
Wed 08:17:45 PM 36.1689 -86.6908 172° South 379 436 25,000  Level Memphis Center
Wed 08:18:45 PM 36.0678 -86.6542 164° South 379 436 25,000  Level Memphis Center
Wed 08:19:45 PM 35.9703 -86.6047 158° South 374 430 25,000  Level Memphis Center
Wed 08:20:45 PM 35.8731 -86.5556 158° South 379 436 25,000  Level Memphis Center
Wed 08:22:40 PM 35.6861 -86.4625 158° South 393 452 25,000  Level Atlanta Center
Wed 08:23:40 PM 35.5869 -86.4136 158° South 388 447 25,000  Level Atlanta Center
Wed 08:25:40 PM 35.3883 -86.3161 158° South 388 447 25,000  Level Atlanta Center
Wed 08:26:40 PM 35.2892 -86.2703 159° South 388 447 25,000  Level Atlanta Center
Wed 08:27:40 PM 35.1942 -86.2194 156° South 388 447 25,000  Level Atlanta Center
Wed 08:28:40 PM 35.0947 -86.1711 158° South 388 447 25,000  Level Atlanta Center
Wed 08:29:40 PM 35.0058 -86.1308 160° South 388 447 25,000  Level Atlanta Center
Wed 08:30:40 PM 34.8981 -86.0775 158° South 388 447 25,000  Level Atlanta Center
Wed 08:31:40 PM 34.8008 -86.0294 158° South 388 447 25,000  Level Atlanta Center
Wed 08:32:40 PM 34.7036 -85.9817 158° South 388 447 25,000  Level Atlanta Center
Wed 08:33:40 PM 34.6042 -85.9339 158° South 388 447 25,000  Level Atlanta Center
Wed 08:34:40 PM 34.5067 -85.8889 159° South 388 447 25,000  Level Atlanta Center
Wed 08:35:40 PM 34.4133 -85.8417 157° South 383 441 25,000  Level Atlanta Center
Wed 08:36:40 PM 34.3203 -85.7994 159° South 364 419 25,000  Level Atlanta Center
Wed 08:37:40 PM 34.2247 -85.7572 160° South 364 419 25,000  Level Atlanta Center
Wed 08:38:40 PM 34.1314 -85.7153 160° South 364 419 25,000  Level Atlanta Center
Wed 08:39:40 PM 34.0464 -85.6733 158° South 364 419 25,000  Level Atlanta Center
Wed 08:40:40 PM 33.9553 -85.6292 158° South 364 419 25,000  Level Atlanta Center
Wed 08:41:40 PM 33.8597 -85.5872 160° South 364 419 25,000  Level Atlanta Center
Wed 08:42:40 PM 33.7683 -85.5431 158° South 359 413 25,000  Level Atlanta Center
Wed 08:43:40 PM 33.6750 -85.5017 160° South 364 419 25,000  Level Atlanta Center
Wed 08:44:40 PM 33.5817 -85.4575 158° South 364 419 25,000  Level Atlanta Center
Wed 08:45:40 PM 33.4903 -85.4139 158° South 361 415 25,000  Level Atlanta Center
Wed 08:46:40 PM 33.3967 -85.3725 160° South 361 415 25,000  Level Atlanta Center
Wed 08:47:40 PM 33.2992 -85.3261 158° South 367 422 25,000  Level Atlanta Center
Wed 08:48:40 PM 33.1972 -85.2800 159° South 367 422 25,000  Level Atlanta Center
Wed 08:49:40 PM 33.1017 -85.2367 159° South 367 422 25,000  Level Atlanta Center
Wed 08:50:40 PM 33.0103 -85.1908 157° South 361 415 25,000  Level Atlanta Center
Wed 08:51:40 PM 32.9106 -85.1572 164° South 368 423 25,000  Level Atlanta Center
Wed 08:52:40 PM 32.8147 -85.1289 166° South 362 417 25,000  Level Atlanta Center
Wed 08:53:40 PM 32.7169 -85.0931 163° South 356 410 25,000  Level Atlanta Center
Wed 08:54:40 PM 32.6211 -85.0597 164° South 362 417 25,000  Level Atlanta Center
Wed 08:55:40 PM 32.5233 -85.0267 164° South 356 410 25,000  Level Atlanta Center
Wed 08:56:40 PM 32.4256 -84.9936 164° South 360 414 25,000  Level Atlanta Center
Wed 08:57:40 PM 32.3297 -84.9606 164° South 360 414 25,000  Level Atlanta Center
Wed 08:58:40 PM 32.2464 -84.9353 166° South 353 406 25,000  Level Atlanta Center
Wed 08:59:40 PM 32.1486 -84.9000 163° South 358 412 25,000  Level Atlanta Center
Wed 09:00:40 PM 32.0528 -84.8697 165° South 358 412 25,000  Level Atlanta Center
Wed 09:02:28 PM 31.8806 -84.8108 164° South 351 404 25,000  Level Jacksonville Center
Wed 09:03:28 PM 31.7892 -84.7819 165° South 351 404 25,000  Level Jacksonville Center
Wed 09:04:28 PM 31.6894 -84.7481 164° South 358 412 25,000  Level Jacksonville Center
Wed 09:05:28 PM 31.5958 -84.7169 164° South 358 412 25,000  Level Jacksonville Center
Wed 09:06:28 PM 31.5025 -84.6836 163° South 352 405 25,000  Level Jacksonville Center
Wed 09:07:28 PM 31.4028 -84.6525 165° South 357 411 25,000  Level Jacksonville Center
Wed 09:08:28 PM 31.3092 -84.6214 164° South 357 411 25,000  Level Jacksonville Center
Wed 09:09:28 PM 31.2178 -84.5761 157° South 357 411 25,000  Level Jacksonville Center
Wed 09:10:28 PM 31.1267 -84.5258 155° Southeast 357 411 25,000  Level Jacksonville Center
Wed 09:11:28 PM 31.0356 -84.4733 154° Southeast 357 411 25,000  Level Jacksonville Center
Wed 09:12:28 PM 30.9464 -84.4233 154° Southeast 357 411 25,000  Level Jacksonville Center
Wed 09:13:28 PM 30.8550 -84.3736 155° Southeast 357 411 25,000  Level Jacksonville Center
Wed 09:14:28 PM 30.7658 -84.3239 154° Southeast 357 411 25,000  Level Jacksonville Center
Wed 09:15:28 PM 30.6725 -84.2717 154° Southeast 357 411 25,000  Level Jacksonville Center
Wed 09:16:28 PM 30.5811 -84.2222 155° Southeast 357 411 25,000  Level Jacksonville Center
Wed 09:17:28 PM 30.4836 -84.1653 153° Southeast 357 411 25,000  Level Jacksonville Center
Wed 09:18:28 PM 30.3900 -84.1183 157° South 357 411 25,000  Level Jacksonville Center
Wed 09:19:28 PM 30.2986 -84.0667 154° Southeast 357 411 25,000  Level Jacksonville Center
Wed 09:20:28 PM 30.2031 -84.0125 154° Southeast 362 417 25,000  Level Jacksonville Center
Wed 09:21:28 PM 30.1097 -83.9658 157° South 362 417 25,000  Level Jacksonville Center
Wed 09:22:28 PM 30.0097 -83.9289 162° South 368 423 25,000  Level Jacksonville Center
Wed 09:23:28 PM 29.9097 -83.8989 165° South 368 423 25,000  Level Jacksonville Center
Wed 09:24:28 PM 29.8119 -83.8669 164° South 368 423 25,000  Level Jacksonville Center
Wed 09:25:28 PM 29.7119 -83.8325 163° South 373 429 25,000  Level Jacksonville Center
Wed 09:26:28 PM 29.6119 -83.8003 164° South 373 429 25,000  Level Jacksonville Center
Wed 09:27:28 PM 29.5225 -83.7686 163° South 379 436 25,000  Level Jacksonville Center
Wed 09:28:28 PM 29.4244 -83.7389 165° South 379 436 25,000  Level Jacksonville Center
Wed 09:29:28 PM 29.3244 -83.7047 163° South 379 436 25,000  Level Jacksonville Center
Wed 09:30:28 PM 29.2267 -83.6706 163° South 374 430 25,000  Level Jacksonville Center
Wed 09:31:28 PM 29.1267 -83.6414 166° South 374 430 25,000  Level Jacksonville Center
Wed 09:32:28 PM 29.0308 -83.6075 163° South 374 430 25,000  Level Jacksonville Center
Wed 09:33:28 PM 28.9350 -83.5783 165° South 374 430 25,000  Level Jacksonville Center
Wed 09:34:28 PM 28.8350 -83.5419 162° South 374 430 25,000  Level Jacksonville Center
Wed 09:36:16 PM 28.6583 -83.4878 165° South 371 427 25,000  Level Miami Center
Wed 09:37:16 PM 28.5558 -83.4533 164° South 376 433 25,000  Level Miami Center
Wed 09:38:16 PM 28.4592 -83.4242 165° South 376 433 25,000  Level Miami Center
Wed 09:39:16 PM 28.3583 -83.3900 163° South 376 433 25,000  Level Miami Center
Wed 09:40:16 PM 28.2533 -83.3628 167° South 376 433 25,000  Level Miami Center
Wed 09:41:16 PM 28.1508 -83.3708 184° South 371 427 25,000 -400 Level Miami Center
Wed 09:42:16 PM 28.0497 -83.3486 169° South 371 427 24,200 -1,050 Descending Miami Center
Wed 09:43:16 PM 27.9628 -83.2872 148° Southeast 356 410 22,900 -1,200 Descending Miami Center
Wed 09:44:16 PM 27.8797 -83.2286 148° Southeast 356 410 21,800 -950 Descending Miami Center
Wed 09:45:16 PM 27.7969 -83.1700 148° Southeast 356 410 21,000 -800 Descending Miami Center
Wed 09:46:16 PM 27.7161 -83.1117 147° Southeast 356 410 20,200 -1,050 Descending Miami Center
Wed 09:47:16 PM 27.6350 -83.0581 150° Southeast 344 396 18,900 -1,350 Descending Miami Center
Wed 09:48:16 PM 27.5600 -83.0047 148° Southeast 333 383 17,500 -1,350 Descending Miami Center
Wed 09:49:16 PM 27.4828 -82.9539 150° Southeast 322 371 16,200 -1,300 Descending Miami Center
Wed 09:50:16 PM 27.4100 -82.9008 147° Southeast 322 371 14,900 -1,300 Descending Miami Center
Wed 09:51:16 PM 27.3350 -82.8503 149° Southeast 316 364 13,600 -950 Descending Miami Center
Wed 09:52:16 PM 27.2661 -82.8022 148° Southeast 306 352 13,000 -300 Descending Miami Center
Wed 09:53:16 PM 27.1969 -82.7567 150° Southeast 301 346 13,000  Level Miami Center
Wed 09:54:16 PM 27.1197 -82.7039 149° Southeast 301 346 13,000  Level Miami Center
Wed 09:55:16 PM 27.0508 -82.6561 148° Southeast 301 346 13,000  Level Miami Center
Wed 09:56:16 PM 26.9797 -82.6083 149° Southeast 301 346 13,000 -150 Level Miami Center
Wed 09:57:16 PM 26.9086 -82.5581 148° Southeast 301 346 12,700 -750 Descending Miami Center
Wed 09:58:16 PM 26.8394 -82.5106 148° Southeast 301 346 11,500 -1,150 Descending Miami Center
Wed 09:59:16 PM 26.7664 -82.4606 149° Southeast 301 346 10,400 -750 Descending Miami Center
Wed 10:00:16 PM 26.6931 -82.4106 149° Southeast 306 352 10,000 -200 Descending Miami Center
Wed 10:01:16 PM 26.6217 -82.3631 149° Southeast 306 352 10,000  Level Miami Center
Wed 10:02:16 PM 26.5550 -82.3114 145° Southeast 301 346 10,000  Level Miami Center
Wed 10:03:16 PM 26.4856 -82.2639 149° Southeast 296 341 10,000  Level Miami Center
Wed 10:04:16 PM 26.4167 -82.2144 147° Southeast 296 341 10,000 -100 Level Miami Center
Wed 10:05:16 PM 26.3475 -82.1650 147° Southeast 291 335 9,800 -200 Descending Miami Center
Wed 10:07:00 PM 26.2030 -82.0618 152° Southeast  Level FlightAware Approximate
Wed 10:14:00 PM 26.1524 -81.7756 66° East  Level Estimated
Wed 10:15:00 PM 26.1524 -81.7756 66° East  Level Estimated
Wed 10:16:00 PM 26.1524 -81.7756 66° East  Level Estimated

Login

Don't have an account? Register now (free) for customized features, flight alerts, and more!